X  Cerrar Datos meteorológicos de aviación METAR     KGAI Montgomery County Airpark
Temperatura
79°F Temperatura
55°F Punto de rocío
45% Humedad



Viento
6 MPH
10 KM/H
3 M/S
5 NUDO



Calma
N
Condiciones actuales

Mayormente nublado Mayormente nublado
Presión 1018.63 (hPa) - 30.08 (inHg)
Visibilidad 10 (milla) - 16.1 (km)
Aeropuerto
Código de aeropuerto KGAI

localidad: Montgomery County Airpark
Distancia: 11 (mi)

Metar:
KGAI 151956Z AUTO VRB05KT 10SM BKN065 26/13 A3008 RMK AO2 SLP196 T02560128

Hora: 06-15-2024 3:56 pm EDT